Hauptseite
METAR-TAF:

METAR-TAF

Flughäfen :

Schwäbisch Hall, Deutschland

Flugplatz Schwäbisch Hall-Hessental (Adolf Würth Airport)

Breite: 49-07-06N, Länge: 9-47-02E, Höhe: 398 m

Beobachtung

Neuester Wetterbericht von vor 16 Minuten, um 18:50 UTC
Wind 5 kt aus West/Südwest
Temperatur 6°C
Luftfeuchtigkeit 93%
Luftdruck 1015 hPa
Sichtweite: 9000 m
Leicht bewölkt in der Höhe von 700 ft
Durchbrochene Bewölkung in der Höhe von 14000 ft
Durchbrochene Bewölkung in der Höhe von 19000 ft

METAR: EDTY 211850Z 25005KT 9000 FEW007 BKN140 BKN190 06/05 Q1015

Zeit: 20:06 (19:06 UTC)

Prognose

Neuester Wetterbericht von vor 2 Stunden und 6 Minuten, um 17:00 UTC
Gültige Prognose vom 21 um 18 UTC bis 22 um 03 UTC
Wind 5 kt aus West/Südwest
Sichtweite 10 km oder mehr
keine Wolken unter 1500 m und keine Kumulonimbus oder Gewitterwolken

TAF: EDTY 211700Z 2118/2203 24005KT CAVOK

Wetterbeobachtungen und Prognosen von mehr als 4000 Flughäfen (METAR und TAF Bericht).

Die verfügbaren Stationen werden durch gelbe und rote Markierungen auf der Karte dargestellt.

Führen Sie die Maus auf sie, um den Namen der Station zu sehen.

Darauf klicken, um die Beobachtung von Wetterbeobachtungen und Prognosen zu sehen.

Um die Karte zu ändern : klicken Sie auf den grünen Tasten mit einem schwarzen Kreuz Zum Vergrößern, auf den grünen Button mit einem Gedankenstrich zu verkleinern, oder auf die grünen Pfeile für benachbarte Karten.


METAR-TAF: